createdAt,value
2018-11-03T00:01:18.677Z,10.10
2018-11-03T00:03:48.168Z,10.10
2018-11-03T00:06:18.027Z,10.10
2018-11-03T00:08:47.525Z,10.10
2018-11-03T00:11:17.034Z,10.10
2018-11-03T00:13:46.643Z,10.10
2018-11-03T00:16:16.179Z,10.10
2018-11-03T00:18:45.626Z,10.10
2018-11-03T00:21:15.158Z,10.10
2018-11-03T00:23:44.503Z,10.10
2018-11-03T00:26:14.000Z,10.10
2018-11-03T00:28:43.526Z,10.10
2018-11-03T00:31:13.092Z,10.10
2018-11-03T00:33:42.973Z,10.10
2018-11-03T00:36:12.574Z,10.20
2018-11-03T00:38:42.106Z,10.10
2018-11-03T00:41:11.489Z,10.20
2018-11-03T00:43:41.094Z,10.20
2018-11-03T00:46:10.722Z,10.20
2018-11-03T00:48:40.148Z,10.20
2018-11-03T00:51:09.538Z,10.20
2018-11-03T00:53:38.982Z,10.20
2018-11-03T00:56:08.458Z,10.20
2018-11-03T00:58:38.082Z,10.20
2018-11-03T01:01:07.588Z,10.20
2018-11-03T01:03:36.986Z,10.20
2018-11-03T01:06:07.131Z,10.20
2018-11-03T01:08:36.683Z,10.10
2018-11-03T01:11:06.851Z,10.10
2018-11-03T01:13:36.249Z,10.10
2018-11-03T01:16:06.278Z,10.10
2018-11-03T01:18:35.841Z,10.10
2018-11-03T01:21:05.868Z,10.10
2018-11-03T01:23:35.553Z,10.10
2018-11-03T01:26:04.993Z,10.10
2018-11-03T01:28:34.504Z,10.10
2018-11-03T01:31:03.965Z,10.10
2018-11-03T01:33:33.857Z,10.10
2018-11-03T01:36:03.455Z,10.10
2018-11-03T01:38:32.959Z,10.10
2018-11-03T01:41:02.629Z,10.10
2018-11-03T01:43:32.057Z,10.10
2018-11-03T01:46:01.768Z,10.00
2018-11-03T01:48:31.223Z,10.00
2018-11-03T01:51:00.774Z,10.00
2018-11-03T01:53:31.191Z,9.90
2018-11-03T01:56:00.688Z,9.90
2018-11-03T01:58:30.450Z,9.90
2018-11-03T02:00:59.905Z,9.90
2018-11-03T02:03:29.444Z,9.80
2018-11-03T02:05:58.811Z,9.80
2018-11-03T02:08:28.430Z,9.80
2018-11-03T02:10:57.793Z,9.80
2018-11-03T02:13:27.217Z,9.80
2018-11-03T02:15:56.705Z,9.70
2018-11-03T02:18:26.208Z,9.70
2018-11-03T02:20:55.749Z,9.80
2018-11-03T02:23:25.147Z,9.80
2018-11-03T02:25:54.467Z,9.80
2018-11-03T02:28:23.954Z,9.80
2018-11-03T02:30:53.491Z,9.80
2018-11-03T02:33:22.929Z,9.80
2018-11-03T02:35:52.397Z,9.80
2018-11-03T02:38:22.692Z,9.80
2018-11-03T02:40:52.195Z,9.80
2018-11-03T02:43:21.567Z,9.80
2018-11-03T02:45:51.078Z,9.80
2018-11-03T02:48:20.473Z,9.80
2018-11-03T02:50:49.853Z,9.80
2018-11-03T02:53:19.420Z,9.80
2018-11-03T02:55:49.603Z,9.90
2018-11-03T02:58:19.044Z,9.80
2018-11-03T03:00:48.511Z,9.90
2018-11-03T03:03:19.081Z,9.90
2018-11-03T03:05:48.620Z,9.90
2018-11-03T03:08:17.987Z,9.80
2018-11-03T03:10:47.487Z,9.90
2018-11-03T03:13:16.831Z,9.90
2018-11-03T03:15:46.166Z,9.90
2018-11-03T03:18:15.546Z,9.90
2018-11-03T03:20:45.017Z,9.90
2018-11-03T03:23:14.443Z,9.90
2018-11-03T03:25:44.560Z,9.90
2018-11-03T03:28:14.178Z,9.90
2018-11-03T03:30:43.672Z,9.90
2018-11-03T03:33:13.109Z,9.90
2018-11-03T03:35:43.055Z,9.90
2018-11-03T03:38:12.474Z,9.90
2018-11-03T03:40:42.074Z,9.90
2018-11-03T03:43:11.515Z,9.90
2018-11-03T03:45:41.011Z,9.90
2018-11-03T03:48:10.621Z,9.90
2018-11-03T03:50:40.009Z,9.90
2018-11-03T03:53:09.405Z,9.90
2018-11-03T03:55:39.485Z,9.90
2018-11-03T03:58:08.929Z,9.90
2018-11-03T04:00:38.417Z,9.90
2018-11-03T04:03:07.883Z,9.90
2018-11-03T04:05:37.493Z,9.90
2018-11-03T04:08:07.074Z,9.90
2018-11-03T04:10:36.546Z,9.90
2018-11-03T04:13:06.765Z,9.90
2018-11-03T04:15:36.721Z,9.90
2018-11-03T04:18:06.585Z,9.90
2018-11-03T04:20:36.491Z,9.90
2018-11-03T04:23:06.993Z,9.90
2018-11-03T04:25:36.834Z,9.90
2018-11-03T04:28:06.298Z,9.90
2018-11-03T04:30:35.634Z,9.90
2018-11-03T04:33:05.054Z,9.90
2018-11-03T04:35:34.603Z,9.90
2018-11-03T04:38:04.068Z,9.90
2018-11-03T04:40:33.422Z,9.90
2018-11-03T04:43:02.878Z,9.90
2018-11-03T04:45:32.308Z,9.90
2018-11-03T04:48:01.755Z,9.90
2018-11-03T04:50:31.163Z,9.90
2018-11-03T04:53:00.611Z,9.90
2018-11-03T04:55:30.551Z,9.90
2018-11-03T04:58:00.124Z,9.90
2018-11-03T05:00:29.593Z,9.90
2018-11-03T05:02:59.047Z,9.90
2018-11-03T05:05:28.400Z,9.90
2018-11-03T05:07:58.479Z,9.90
2018-11-03T05:10:28.073Z,10.00
2018-11-03T05:12:57.609Z,10.00
2018-11-03T05:15:27.794Z,10.00
2018-11-03T05:17:57.330Z,10.00
2018-11-03T05:20:26.839Z,10.00
2018-11-03T05:22:56.401Z,10.00
2018-11-03T05:25:25.938Z,10.00
2018-11-03T05:27:55.428Z,10.00
2018-11-03T05:30:25.292Z,10.00
2018-11-03T05:32:54.745Z,10.00
2018-11-03T05:35:24.151Z,10.00
2018-11-03T05:37:53.663Z,10.00
2018-11-03T05:40:23.288Z,10.00
2018-11-03T05:42:52.692Z,10.00
2018-11-03T05:45:22.286Z,10.00
2018-11-03T05:47:51.872Z,10.00
2018-11-03T05:50:21.388Z,10.00
2018-11-03T05:52:50.826Z,10.00
2018-11-03T05:55:20.440Z,10.00
2018-11-03T05:57:49.846Z,10.00
2018-11-03T06:00:19.301Z,10.00
2018-11-03T06:02:49.710Z,10.00
2018-11-03T06:05:19.092Z,10.10
2018-11-03T06:07:48.641Z,10.10
2018-11-03T06:10:18.165Z,10.10
2018-11-03T06:12:47.651Z,10.10
2018-11-03T06:15:17.267Z,10.10
2018-11-03T06:17:46.768Z,10.10
2018-11-03T06:20:16.311Z,10.10
2018-11-03T06:22:45.887Z,10.10
2018-11-03T06:25:15.283Z,10.10
2018-11-03T06:27:44.821Z,10.10
2018-11-03T06:30:14.433Z,10.10
2018-11-03T06:32:43.999Z,10.20
2018-11-03T06:35:13.587Z,10.20
2018-11-03T06:37:43.151Z,10.20
2018-11-03T06:40:13.469Z,10.20
2018-11-03T06:42:43.029Z,10.20
2018-11-03T06:45:12.444Z,10.20
2018-11-03T06:47:41.970Z,10.20
2018-11-03T06:50:11.938Z,10.20
2018-11-03T06:52:42.225Z,10.30
2018-11-03T06:55:11.862Z,10.30
2018-11-03T06:57:41.391Z,10.30
2018-11-03T07:00:11.393Z,10.30
2018-11-03T07:02:40.912Z,10.30
2018-11-03T07:05:10.466Z,10.40
2018-11-03T07:07:40.172Z,10.40
2018-11-03T07:10:10.704Z,10.40
2018-11-03T07:12:41.012Z,10.40
2018-11-03T07:15:10.250Z,10.50
2018-11-03T07:17:39.735Z,10.50
2018-11-03T07:20:11.608Z,10.60
2018-11-03T07:22:42.034Z,10.60
2018-11-03T07:25:11.931Z,10.60
2018-11-03T07:27:41.482Z,10.70
2018-11-03T07:30:12.609Z,10.70
2018-11-03T07:32:42.259Z,10.70
2018-11-03T07:35:12.236Z,10.80
2018-11-03T07:37:42.446Z,10.80
2018-11-03T07:40:12.014Z,10.80
2018-11-03T07:42:41.921Z,10.90
2018-11-03T07:45:11.521Z,10.90
2018-11-03T07:47:41.197Z,10.90
2018-11-03T07:50:12.557Z,10.90
2018-11-03T07:52:42.947Z,10.90
2018-11-03T07:55:13.677Z,10.90
2018-11-03T07:57:44.188Z,11.00
2018-11-03T08:00:15.768Z,11.00
2018-11-03T08:02:45.477Z,11.00
2018-11-03T08:05:15.001Z,11.00
2018-11-03T08:07:45.349Z,11.00
2018-11-03T08:10:15.322Z,11.10
2018-11-03T08:12:44.834Z,11.10
2018-11-03T08:15:14.342Z,11.20
2018-11-03T08:17:43.713Z,11.20
2018-11-03T08:20:13.176Z,11.20
2018-11-03T08:22:43.178Z,11.20
2018-11-03T08:25:12.687Z,11.30
2018-11-03T08:27:42.237Z,11.30
2018-11-03T08:30:13.994Z,11.40
2018-11-03T08:32:44.071Z,11.40
2018-11-03T08:35:13.902Z,11.40
2018-11-03T08:37:43.444Z,11.50
2018-11-03T08:40:13.404Z,11.50
2018-11-03T08:42:42.981Z,11.50
2018-11-03T08:45:12.714Z,11.60
2018-11-03T08:47:42.124Z,11.60
2018-11-03T08:50:12.782Z,11.60
2018-11-03T08:52:42.986Z,11.70
2018-11-03T08:55:13.647Z,11.70
2018-11-03T08:57:43.416Z,11.80
2018-11-03T09:00:15.185Z,11.80
2018-11-03T09:02:44.773Z,11.90
2018-11-03T09:05:14.302Z,12.00
2018-11-03T09:07:43.719Z,12.00
2018-11-03T09:10:15.054Z,12.10
2018-11-03T09:12:44.550Z,12.20
2018-11-03T09:15:14.747Z,12.30
2018-11-03T09:17:44.569Z,12.40
2018-11-03T09:20:14.403Z,12.40
2018-11-03T09:22:44.937Z,12.50
2018-11-03T09:25:15.451Z,12.50
2018-11-03T09:27:45.800Z,12.60
2018-11-03T09:30:17.713Z,12.60
2018-11-03T09:32:47.217Z,12.70
2018-11-03T09:35:17.172Z,12.70
2018-11-03T09:37:46.585Z,12.80
2018-11-03T09:40:17.121Z,12.90
2018-11-03T09:42:47.368Z,12.90
2018-11-03T09:45:16.926Z,13.00
2018-11-03T09:47:46.375Z,13.00
2018-11-03T09:50:16.233Z,13.10
2018-11-03T09:52:45.866Z,13.20
2018-11-03T09:55:17.096Z,13.30
2018-11-03T09:57:46.592Z,13.30
2018-11-03T10:00:17.351Z,13.40
2018-11-03T10:02:46.844Z,13.50
2018-11-03T10:05:16.745Z,13.50
2018-11-03T10:07:46.267Z,13.60
2018-11-03T10:10:17.807Z,13.70
2018-11-03T10:12:47.231Z,13.80
2018-11-03T10:15:18.167Z,13.90
2018-11-03T10:17:47.805Z,13.90
2018-11-03T10:20:17.284Z,14.00
2018-11-03T10:22:47.319Z,14.10
2018-11-03T10:25:18.043Z,14.10
2018-11-03T10:27:48.155Z,14.10
2018-11-03T10:30:18.371Z,14.10
2018-11-03T10:32:48.189Z,14.00
2018-11-03T10:35:17.685Z,14.00
2018-11-03T10:37:47.055Z,14.00
2018-11-03T10:40:17.721Z,14.00
2018-11-03T10:42:47.167Z,14.00
2018-11-03T10:45:17.149Z,13.90
2018-11-03T10:47:51.142Z,13.90
2018-11-03T10:50:22.046Z,13.90
2018-11-03T10:52:51.598Z,13.90
2018-11-03T10:55:21.138Z,13.80
2018-11-03T10:57:50.748Z,13.80
2018-11-03T11:00:26.441Z,13.80
2018-11-03T11:03:01.336Z,13.70
2018-11-03T11:05:36.554Z,13.80
2018-11-03T11:08:11.548Z,13.80
2018-11-03T11:10:46.196Z,13.80
2018-11-03T11:13:20.598Z,13.80
2018-11-03T11:15:51.846Z,13.80
2018-11-03T11:18:22.316Z,13.80
2018-11-03T11:20:52.544Z,13.80
2018-11-03T11:23:22.583Z,13.90
2018-11-03T11:25:52.150Z,13.90
2018-11-03T11:28:21.742Z,14.00
2018-11-03T11:30:51.322Z,14.00
2018-11-03T11:33:20.732Z,14.00
2018-11-03T11:35:50.365Z,14.00
2018-11-03T11:38:19.997Z,14.00
2018-11-03T11:40:49.589Z,14.00
2018-11-03T11:43:19.262Z,14.00
2018-11-03T11:45:49.045Z,14.10
2018-11-03T11:48:18.505Z,14.10
2018-11-03T11:50:48.053Z,14.10
2018-11-03T11:53:17.445Z,14.10
2018-11-03T11:55:47.033Z,14.10
2018-11-03T11:58:16.506Z,14.10
2018-11-03T12:00:46.022Z,14.20
2018-11-03T12:03:15.470Z,14.20
2018-11-03T12:05:45.009Z,14.20
2018-11-03T12:08:14.620Z,14.20
2018-11-03T12:10:45.921Z,14.20
2018-11-03T12:13:15.381Z,14.20
2018-11-03T12:15:45.010Z,14.20
2018-11-03T12:18:14.568Z,14.20
2018-11-03T12:20:44.645Z,14.20
2018-11-03T12:23:14.104Z,14.20
2018-11-03T12:25:44.430Z,14.20
2018-11-03T12:28:21.414Z,14.20
2018-11-03T12:30:51.997Z,14.20
2018-11-03T12:33:21.602Z,14.30
2018-11-03T12:35:52.562Z,14.30
2018-11-03T12:38:22.253Z,14.30
2018-11-03T12:40:52.652Z,14.30
2018-11-03T12:43:23.100Z,14.30
2018-11-03T12:45:53.987Z,14.20
2018-11-03T12:48:24.900Z,14.20
2018-11-03T12:50:54.280Z,14.20
2018-11-03T12:53:23.765Z,14.20
2018-11-03T12:55:53.258Z,14.20
2018-11-03T12:58:22.965Z,14.20
2018-11-03T13:00:52.734Z,14.20
2018-11-03T13:03:22.700Z,14.10
2018-11-03T13:05:52.299Z,14.10
2018-11-03T13:08:22.201Z,14.20
2018-11-03T13:10:51.990Z,14.20
2018-11-03T13:13:21.506Z,14.20
2018-11-03T13:15:51.642Z,14.20
2018-11-03T13:18:21.092Z,14.20
2018-11-03T13:20:50.550Z,14.20
2018-11-03T13:23:20.116Z,14.20
2018-11-03T13:25:49.753Z,14.10
2018-11-03T13:28:19.718Z,14.10
2018-11-03T13:30:49.436Z,14.00
2018-11-03T13:33:19.124Z,13.90
2018-11-03T13:35:49.024Z,13.90
2018-11-03T13:38:18.508Z,13.80
2018-11-03T13:40:48.873Z,13.70
2018-11-03T13:43:18.409Z,13.70
2018-11-03T13:45:47.970Z,13.60
2018-11-03T13:48:17.472Z,13.60
2018-11-03T13:50:47.444Z,13.50
2018-11-03T13:53:16.923Z,13.50
2018-11-03T13:55:47.449Z,13.50
2018-11-03T13:58:16.903Z,13.50
2018-11-03T14:00:46.386Z,13.50
2018-11-03T14:03:15.772Z,13.50
2018-11-03T14:05:46.028Z,13.50
2018-11-03T14:08:15.473Z,13.50
2018-11-03T14:10:45.074Z,13.50
2018-11-03T14:13:14.865Z,13.50
2018-11-03T14:15:44.696Z,13.50
2018-11-03T14:18:14.326Z,13.40
2018-11-03T14:20:43.942Z,13.40
2018-11-03T14:23:13.473Z,13.30
2018-11-03T14:25:43.044Z,13.30
2018-11-03T14:28:12.633Z,13.30
2018-11-03T14:30:42.216Z,13.30
2018-11-03T14:33:11.761Z,13.30
2018-11-03T14:35:41.313Z,13.40
2018-11-03T14:38:11.436Z,13.40
2018-11-03T14:40:40.841Z,13.40
2018-11-03T14:43:10.496Z,13.40
2018-11-03T14:45:40.129Z,13.40
2018-11-03T14:48:09.624Z,13.40
2018-11-03T14:50:39.332Z,13.50
2018-11-03T14:53:08.744Z,13.50
2018-11-03T14:55:38.337Z,13.50
2018-11-03T14:58:08.134Z,13.50
2018-11-03T15:00:38.070Z,13.50
2018-11-03T15:03:08.290Z,13.40
2018-11-03T15:05:37.791Z,13.40
2018-11-03T15:08:07.470Z,13.30
2018-11-03T15:10:36.962Z,13.30
2018-11-03T15:13:06.733Z,13.20
2018-11-03T15:15:36.318Z,13.20
2018-11-03T15:18:05.976Z,13.10
2018-11-03T15:20:35.414Z,13.10
2018-11-03T15:23:04.873Z,13.00
2018-11-03T15:25:34.439Z,13.00
2018-11-03T15:28:04.083Z,13.00
2018-11-03T15:30:33.587Z,13.00
2018-11-03T15:33:03.010Z,12.90
2018-11-03T15:35:33.701Z,12.90
2018-11-03T15:38:03.297Z,12.90
2018-11-03T15:40:32.931Z,12.80
2018-11-03T15:43:02.336Z,12.80
2018-11-03T15:45:32.730Z,12.80
2018-11-03T15:48:02.228Z,12.70
2018-11-03T15:50:31.732Z,12.70
2018-11-03T15:53:01.318Z,12.70
2018-11-03T15:55:30.794Z,12.70
2018-11-03T15:58:00.266Z,12.60
2018-11-03T16:00:30.058Z,12.60
2018-11-03T16:02:59.606Z,12.60
2018-11-03T16:05:29.135Z,12.50
2018-11-03T16:07:58.576Z,12.50
2018-11-03T16:10:28.092Z,12.50
2018-11-03T16:12:58.146Z,12.50
2018-11-03T16:15:27.574Z,12.40
2018-11-03T16:17:57.106Z,12.40
2018-11-03T16:20:26.623Z,12.40
2018-11-03T16:22:56.169Z,12.40
2018-11-03T16:25:25.745Z,12.40
2018-11-03T16:27:55.154Z,12.30
2018-11-03T16:30:24.776Z,12.30
2018-11-03T16:32:54.443Z,12.30
2018-11-03T16:35:23.881Z,12.30
2018-11-03T16:37:53.565Z,12.30
2018-11-03T16:40:23.334Z,12.30
2018-11-03T16:42:53.217Z,12.20
2018-11-03T16:45:23.243Z,12.20
2018-11-03T16:47:53.063Z,12.20
2018-11-03T16:50:22.665Z,12.20
2018-11-03T16:52:52.321Z,12.20
2018-11-03T16:55:22.960Z,12.20
2018-11-03T16:57:52.521Z,12.20
2018-11-03T17:00:21.998Z,12.20
2018-11-03T17:02:51.951Z,12.20
2018-11-03T17:05:22.649Z,12.20
2018-11-03T17:07:52.241Z,12.20
2018-11-03T17:10:21.886Z,12.20
2018-11-03T17:12:51.484Z,12.20
2018-11-03T17:15:21.383Z,12.10
2018-11-03T17:17:50.795Z,12.10
2018-11-03T17:20:20.222Z,12.10
2018-11-03T17:22:49.775Z,12.10
2018-11-03T17:25:19.366Z,12.10
2018-11-03T17:27:48.604Z,12.00
2018-11-03T17:30:18.137Z,12.00
2018-11-03T17:32:48.336Z,12.00
2018-11-03T17:35:17.806Z,12.00
2018-11-03T17:37:47.444Z,12.00
2018-11-03T17:40:17.506Z,12.00
2018-11-03T17:42:46.964Z,12.00
2018-11-03T17:45:16.876Z,11.90
2018-11-03T17:47:46.401Z,11.90
2018-11-03T17:50:15.949Z,11.90
2018-11-03T17:52:45.442Z,11.90
2018-11-03T17:55:14.989Z,11.90
2018-11-03T17:57:44.595Z,11.90
2018-11-03T18:00:16.133Z,11.80
2018-11-03T18:02:47.631Z,11.80
2018-11-03T18:05:17.765Z,11.80
2018-11-03T18:07:47.343Z,11.80
2018-11-03T18:10:16.727Z,11.80
2018-11-03T18:12:46.923Z,11.80
2018-11-03T18:15:16.497Z,11.80
2018-11-03T18:17:46.023Z,11.80
2018-11-03T18:20:15.539Z,11.80
2018-11-03T18:22:45.097Z,11.80
2018-11-03T18:25:14.641Z,11.80
2018-11-03T18:27:44.332Z,11.80
2018-11-03T18:30:14.250Z,11.80
2018-11-03T18:32:43.722Z,11.80
2018-11-03T18:35:13.673Z,11.80
2018-11-03T18:37:43.240Z,11.80
2018-11-03T18:40:13.030Z,11.80
2018-11-03T18:42:42.705Z,11.80
2018-11-03T18:45:12.178Z,11.80
2018-11-03T18:47:42.603Z,11.80
2018-11-03T18:50:14.148Z,11.80
2018-11-03T18:52:43.915Z,11.80
2018-11-03T18:55:13.854Z,11.80
2018-11-03T18:57:43.545Z,11.80
2018-11-03T19:00:13.014Z,11.80
2018-11-03T19:02:42.971Z,11.70
2018-11-03T19:05:12.583Z,11.70
2018-11-03T19:07:42.025Z,11.80
2018-11-03T19:10:11.943Z,11.70
2018-11-03T19:12:41.537Z,11.80
2018-11-03T19:15:12.659Z,11.80
2018-11-03T19:17:42.274Z,11.70
2018-11-03T19:20:14.473Z,11.70
2018-11-03T19:22:44.690Z,11.70
2018-11-03T19:25:14.839Z,11.70
2018-11-03T19:27:44.479Z,11.70
2018-11-03T19:30:14.924Z,11.70
2018-11-03T19:32:45.535Z,11.70
2018-11-03T19:35:15.305Z,11.70
2018-11-03T19:37:44.717Z,11.80
2018-11-03T19:40:14.743Z,11.80
2018-11-03T19:42:44.349Z,11.70
2018-11-03T19:45:15.783Z,11.70
2018-11-03T19:47:46.025Z,11.70
2018-11-03T19:50:15.953Z,11.80
2018-11-03T19:52:45.513Z,11.80
2018-11-03T19:55:16.181Z,11.80
2018-11-03T19:57:45.782Z,11.80
2018-11-03T20:02:47.480Z,11.70
2018-11-03T20:05:16.881Z,11.60
2018-11-03T20:07:48.062Z,11.60
2018-11-03T20:10:18.863Z,11.60
2018-11-03T20:12:49.446Z,11.70
2018-11-03T20:15:20.368Z,11.60
2018-11-03T20:17:52.116Z,11.70
2018-11-03T20:20:22.810Z,11.70
2018-11-03T20:22:52.538Z,11.70
2018-11-03T20:25:22.959Z,11.70
2018-11-03T20:27:52.985Z,11.70
2018-11-03T20:30:23.891Z,11.70
2018-11-03T20:32:58.397Z,11.70
2018-11-03T20:38:01.495Z,11.70
2018-11-03T20:40:34.929Z,11.60
2018-11-03T20:43:05.489Z,11.60
2018-11-03T20:45:41.885Z,11.70
2018-11-03T20:48:12.637Z,11.70
2018-11-03T20:50:46.437Z,11.70
2018-11-03T20:53:16.155Z,11.70
2018-11-03T20:55:46.721Z,11.70
2018-11-03T20:58:16.640Z,11.70
2018-11-03T21:00:46.225Z,11.70
2018-11-03T21:03:15.766Z,11.70
2018-11-03T21:05:45.372Z,11.70
2018-11-03T21:08:15.508Z,11.70
2018-11-03T21:10:45.064Z,11.70
2018-11-03T21:13:14.605Z,11.70
2018-11-03T21:15:44.835Z,11.70
2018-11-03T21:18:14.632Z,11.70
2018-11-03T21:20:44.098Z,11.70
2018-11-03T21:23:13.815Z,11.70
2018-11-03T21:25:43.664Z,11.70
2018-11-03T21:28:13.829Z,11.70
2018-11-03T21:30:43.280Z,11.70
2018-11-03T21:33:13.108Z,11.70
2018-11-03T21:35:42.431Z,11.70
2018-11-03T21:38:12.565Z,11.70
2018-11-03T21:40:42.887Z,11.70
2018-11-03T21:43:13.932Z,11.70
2018-11-03T21:45:44.272Z,11.70
2018-11-03T21:48:14.669Z,11.70
2018-11-03T21:50:45.140Z,11.70
2018-11-03T21:53:14.772Z,11.70
2018-11-03T21:55:45.201Z,11.70
2018-11-03T21:58:15.482Z,11.70
2018-11-03T22:00:49.263Z,11.70
2018-11-03T22:03:18.809Z,11.70
2018-11-03T22:05:48.407Z,11.70
2018-11-03T22:08:18.036Z,11.70
2018-11-03T22:10:47.595Z,11.70
2018-11-03T22:13:17.436Z,11.70
2018-11-03T22:15:46.963Z,11.70
2018-11-03T22:18:16.462Z,11.70
2018-11-03T22:20:46.018Z,11.70
2018-11-03T22:23:15.540Z,11.70
2018-11-03T22:25:45.096Z,11.70
2018-11-03T22:28:14.681Z,11.70
2018-11-03T22:30:44.389Z,11.70
2018-11-03T22:33:14.653Z,11.70
2018-11-03T22:35:44.225Z,11.70
2018-11-03T22:38:13.895Z,11.70
2018-11-03T22:40:47.772Z,11.70
2018-11-03T22:43:17.373Z,11.70
2018-11-03T22:45:47.020Z,11.70
2018-11-03T22:48:16.588Z,11.70
2018-11-03T22:50:46.177Z,11.70
2018-11-03T22:53:16.745Z,11.70
2018-11-03T22:55:46.308Z,11.70
2018-11-03T22:58:16.021Z,11.70
2018-11-03T23:00:50.772Z,11.70
2018-11-03T23:03:20.355Z,11.70
2018-11-03T23:05:49.996Z,11.70
2018-11-03T23:08:19.596Z,11.70
2018-11-03T23:10:49.315Z,11.70
2018-11-03T23:13:19.334Z,11.70
2018-11-03T23:15:49.544Z,11.70
2018-11-03T23:18:19.116Z,11.70
2018-11-03T23:20:48.622Z,11.70
2018-11-03T23:23:18.160Z,11.70
2018-11-03T23:25:47.959Z,11.70
2018-11-03T23:28:17.603Z,11.70
2018-11-03T23:30:47.063Z,11.60
2018-11-03T23:33:17.522Z,11.60
2018-11-03T23:35:47.065Z,11.60
2018-11-03T23:38:16.574Z,11.60
2018-11-03T23:40:46.112Z,11.60
2018-11-03T23:43:15.680Z,11.60
2018-11-03T23:45:45.350Z,11.60
2018-11-03T23:48:14.936Z,11.60
2018-11-03T23:50:44.912Z,11.60
2018-11-03T23:53:18.897Z,11.60
2018-11-03T23:55:48.573Z,11.60
2018-11-03T23:58:18.958Z,11.60
